Time;durP1;ratioP1;P1;durP2;ratioP2;P2;SDS_P1;SDS_P2;PMS_P1;PMS_P2;Temp;Humidity;BMP_temperature;BMP_pressure;BME280_temperature;BME280_humidity;BME280_pressure;Samples;Min_cycle;Max_cycle;Signal;HPM_P1;HPM_P2
2023/10/10 00:01:10;;;;;;;1.13;1.08;;;;;;;12.04;79.23;101412.47;15612664;28;20056;-54
2023/10/10 00:08:46;;;;;;;1.02;0.55;;;;;;;12.29;78.15;101405.47;15609195;28;20077;-52
2023/10/10 00:16:26;;;;;;;1.17;0.65;;;;;;;12.17;78.64;101402.56;15599917;28;20203;-49
2023/10/10 00:24:01;;;;;;;2.45;1.23;;;;;;;12.09;78.34;101408.13;15617273;28;20079;-50
2023/10/10 00:31:34;;;;;;;0.10;0.10;;;;;;;12.35;78.19;101401.94;15611556;28;20352;-49
2023/10/10 00:39:22;;;;;;;0.38;0.38;;;;;;;12.64;76.97;101392.66;15601879;28;20300;-51
2023/10/10 00:46:57;;;;;;;0.50;0.50;;;;;;;12.57;77.57;101390.97;15587947;28;20478;-52
2023/10/10 00:54:32;;;;;;;0.57;0.57;;;;;;;12.67;76.70;101389.50;15608623;28;20045;-50
2023/10/10 01:02:05;;;;;;;1.10;0.70;;;;;;;12.75;76.71;101400.09;15606522;28;20033;-49
2023/10/10 01:09:51;;;;;;;0.43;0.43;;;;;;;12.48;78.06;101399.25;15607187;28;20076;-50
2023/10/10 01:17:29;;;;;;;0.17;0.17;;;;;;;12.69;76.90;101389.31;15604987;28;20103;-50
2023/10/10 01:25:40;;;;;;;0.03;0.03;;;;;;;12.74;76.86;101376.88;15596053;28;20067;-51
2023/10/10 01:33:01;;;;;;;0.55;0.43;;;;;;;12.87;76.83;101367.97;15592682;28;20072;-52
2023/10/10 01:40:37;;;;;;;0.50;0.47;;;;;;;12.77;76.61;101362.97;15592622;28;20334;-50
2023/10/10 01:48:11;;;;;;;0.45;0.45;;;;;;;12.88;77.14;101364.22;15602029;28;20049;-50
2023/10/10 01:55:47;;;;;;;0.13;0.13;;;;;;;13.00;76.72;101369.78;15602488;28;20088;-50
2023/10/10 02:03:21;;;;;;;0.15;0.15;;;;;;;12.70;76.51;101315.56;15606272;28;20169;-50
2023/10/10 02:11:02;;;;;;;0.15;0.15;;;;;;;12.93;77.19;101348.25;15610354;28;20053;-50
2023/10/10 02:18:44;;;;;;;0.17;0.17;;;;;;;12.94;77.12;101352.59;15612101;28;20051;-50
2023/10/10 02:26:35;;;;;;;0.67;0.50;;;;;;;13.18;76.52;101355.63;15620713;28;20060;-49
2023/10/10 02:34:10;;;;;;;2.78;1.02;;;;;;;13.19;76.80;101365.38;15622761;28;20296;-50
2023/10/10 02:41:48;;;;;;;0.77;0.77;;;;;;;13.28;76.72;101370.34;15622880;28;20045;-53
2023/10/10 02:49:29;;;;;;;0.00;0.00;;;;;;;13.14;77.88;101370.56;15617035;28;20034;-50
2023/10/10 03:05:06;;;;;;;0.88;0.85;;;;;;;13.21;77.92;101350.66;15619122;28;20037;-53
2023/10/10 03:12:49;;;;;;;0.17;0.17;;;;;;;13.15;77.64;101347.97;15612044;28;20140;-49
2023/10/10 03:20:39;;;;;;;0.65;0.65;;;;;;;13.39;77.18;101338.41;15619235;28;20132;-51
2023/10/10 03:28:21;;;;;;;0.00;0.00;;;;;;;13.49;76.69;101357.63;15618819;28;20109;-52
2023/10/10 03:36:13;;;;;;;0.77;0.77;;;;;;;13.55;76.48;101358.66;15670195;23;20041;-51
2023/10/10 05:26:02;;;;;;;0.00;0.00;;;;;;;13.66;84.46;101391.19;15656568;28;20443;-57
2023/10/10 05:33:37;;;;;;;0.55;0.52;;;;;;;13.67;84.22;101394.72;15664934;28;20032;-53
2023/10/10 05:41:11;;;;;;;0.75;0.70;;;;;;;13.56;85.37;101403.44;15670548;28;20382;-51
2023/10/10 05:48:47;;;;;;;0.05;0.05;;;;;;;13.81;84.90;101396.28;15632391;28;20103;-55
2023/10/10 05:56:20;;;;;;;0.40;0.40;;;;;;;13.90;84.16;101388.78;15667895;28;20482;-48
2023/10/10 06:03:56;;;;;;;0.52;0.38;;;;;;;13.84;84.96;101393.16;15656448;28;20041;-52
2023/10/10 06:11:32;;;;;;;0.43;0.17;;;;;;;14.21;82.96;101394.16;15662056;28;20478;-53
2023/10/10 06:19:13;;;;;;;0.38;0.32;;;;;;;13.88;84.99;101409.75;15669951;28;20115;-53
2023/10/10 06:26:48;;;;;;;0.00;0.00;;;;;;;14.04;85.11;101418.19;15678356;28;20064;-51
2023/10/10 06:34:23;;;;;;;0.32;0.32;;;;;;;14.07;84.85;101419.59;15679652;28;20041;-52
2023/10/10 06:41:58;;;;;;;0.43;0.13;;;;;;;14.26;83.78;101418.63;15660842;28;20033;-48
2023/10/10 06:49:43;;;;;;;2.28;0.45;;;;;;;14.19;85.29;101422.44;15659924;28;20045;-52
2023/10/10 06:57:18;;;;;;;0.17;0.17;;;;;;;14.17;85.18;101432.63;15671250;28;20076;-52
2023/10/10 07:04:53;;;;;;;0.00;0.00;;;;;;;14.45;84.46;101440.31;15669390;28;20045;-52
2023/10/10 07:12:28;;;;;;;0.40;0.40;;;;;;;14.43;84.13;101442.44;15674470;28;20102;-50
2023/10/10 07:27:56;;;;;;;0.08;0.08;;;;;;;14.37;83.63;101465.75;15676890;28;20139;-53
2023/10/10 07:35:36;;;;;;;0.00;0.00;;;;;;;14.42;84.82;101463.22;15675507;28;20053;-49
2023/10/10 07:43:10;;;;;;;0.10;0.10;;;;;;;14.58;83.87;101461.06;15655546;28;20061;-48
2023/10/10 07:50:56;;;;;;;;;;;;;;;15.23;82.02;101459.66;15668506;28;20056;-49
2023/10/10 07:58:42;;;;;;;0.40;0.20;;;;;;;15.14;81.73;101462.88;15649244;28;20019;-50
2023/10/10 08:06:21;;;;;;;0.10;0.10;;;;;;;15.13;81.11;101455.81;15667900;28;20118;-49
2023/10/10 08:13:55;;;;;;;0.00;0.00;;;;;;;15.39;81.38;101468.22;15673762;28;20137;-48
2023/10/10 08:21:36;;;;;;;0.15;0.15;;;;;;;15.62;79.99;101473.81;15652564;28;20102;-52
2023/10/10 08:29:10;;;;;;;0.00;0.00;;;;;;;14.96;81.08;101479.88;15669579;28;20052;-57
2023/10/10 08:36:45;;;;;;;0.20;0.20;;;;;;;15.32;80.17;101479.13;15671488;28;20482;-54
2023/10/10 08:44:20;;;;;;;0.30;0.10;;;;;;;15.24;80.79;101474.81;15671037;28;20581;-49
2023/10/10 08:52:00;;;;;;;0.57;0.57;;;;;;;15.38;78.86;101480.94;15651957;28;20068;-48
2023/10/10 08:59:35;;;;;;;0.00;0.00;;;;;;;15.49;79.34;101479.38;15647257;28;20053;-53
2023/10/10 09:07:20;;;;;;;0.00;0.00;;;;;;;15.67;78.23;101471.31;15664303;28;20519;-49
2023/10/10 09:14:53;;;;;;;0.00;0.00;;;;;;;16.10;77.45;101472.22;15636160;28;20592;-57
2023/10/10 09:22:42;;;;;;;0.00;0.00;;;;;;;16.27;76.50;101468.66;15648121;28;20533;-49
2023/10/10 09:30:20;;;;;;;0.00;0.00;;;;;;;15.77;75.96;101465.34;15675536;22;20045;-52
2023/10/10 09:38:00;;;;;;;0.45;0.30;;;;;;;16.50;75.60;101476.00;15608959;28;20045;-48
2023/10/10 09:53:39;;;;;;;0.00;0.00;;;;;;;16.22;74.30;101479.31;15878653;27;20445;-52
2023/10/10 10:01:22;;;;;;;0.20;0.10;;;;;;;16.71;73.56;101476.53;15816090;22;20040;-49
2023/10/10 10:09:31;;;;;;;0.00;0.00;;;;;;;15.71;75.15;101488.72;15720223;28;20054;-49
2023/10/10 10:17:13;;;;;;;2.33;1.05;;;;;;;15.85;74.91;101492.09;15685583;28;20120;-52
2023/10/10 10:25:22;;;;;;;0.10;0.10;;;;;;;15.74;75.86;101496.41;15701591;28;20076;-50
2023/10/10 10:32:54;;;;;;;0.10;0.10;;;;;;;16.05;74.97;101500.81;15717907;28;20132;-49
2023/10/10 10:40:45;;;;;;;0.20;0.20;;;;;;;16.02;75.80;101495.84;15713524;28;20041;-49
2023/10/10 10:48:29;;;;;;;0.20;0.17;;;;;;;16.43;74.42;101490.72;15707105;28;20033;-52
2023/10/10 11:03:56;;;;;;;0.00;0.00;;;;;;;16.55;74.87;101481.56;15673923;28;20044;-48
2023/10/10 11:11:40;;;;;;;0.13;0.13;;;;;;;16.02;76.26;101476.88;15672635;28;20068;-55
2023/10/10 11:19:35;;;;;;;0.15;0.15;;;;;;;16.92;73.31;101472.47;15675745;28;20087;-51
2023/10/10 11:27:21;;;;;;;0.00;0.00;;;;;;;16.58;74.17;101478.38;15677572;28;20037;-50
2023/10/10 11:34:56;;;;;;;0.45;0.45;;;;;;;16.41;72.49;101473.84;15654281;28;20049;-56
2023/10/10 11:42:33;;;;;;;0.00;0.00;;;;;;;16.28;72.56;101473.00;15675244;28;20520;-54
2023/10/10 11:50:11;;;;;;;0.35;0.30;;;;;;;16.77;71.22;101462.06;15668106;28;20040;-50
2023/10/10 11:57:46;;;;;;;0.00;0.00;;;;;;;16.71;71.77;101452.97;15674372;28;20481;-50
2023/10/10 12:13:09;;;;;;;0.05;0.05;;;;;;;17.49;68.96;101448.28;15669941;28;20474;-55
2023/10/10 12:20:44;;;;;;;0.00;0.00;;;;;;;17.17;70.50;101448.66;15650753;28;20075;-53
2023/10/10 12:28:18;;;;;;;0.38;0.25;;;;;;;17.38;69.38;101436.34;15653042;28;20037;-51
2023/10/10 12:35:52;;;;;;;0.00;0.00;;;;;;;17.29;69.93;101432.34;15672144;28;20417;-52
2023/10/10 12:43:27;;;;;;;0.00;0.00;;;;;;;17.90;68.26;101427.41;15653034;28;20037;-50
2023/10/10 12:51:01;;;;;;;0.10;0.10;;;;;;;17.32;69.36;101418.31;15649528;28;20743;-52
2023/10/10 12:58:40;;;;;;;0.00;0.00;;;;;;;17.60;69.84;101412.94;15670215;28;20080;-54
2023/10/10 13:06:14;;;;;;;0.10;0.10;;;;;;;18.09;67.22;101401.69;15650304;28;20047;-52
2023/10/10 13:13:51;;;;;;;0.00;0.00;;;;;;;17.97;67.46;101403.66;15632016;28;20049;-53
2023/10/10 13:21:25;;;;;;;0.00;0.00;;;;;;;17.57;67.09;101408.00;15666538;28;20063;-53
2023/10/10 13:29:02;;;;;;;1.15;0.80;;;;;;;17.78;67.39;101392.16;15666166;28;20071;-52
2023/10/10 13:36:35;;;;;;;0.00;0.00;;;;;;;17.33;69.49;101393.66;15663425;28;20133;-51
2023/10/10 13:44:11;;;;;;;0.00;0.00;;;;;;;17.17;69.39;101396.28;15665440;28;20044;-49
2023/10/10 13:51:45;;;;;;;0.00;0.00;;;;;;;17.49;68.99;101400.25;15667094;28;20481;-57
2023/10/10 13:59:20;;;;;;;0.00;0.00;;;;;;;17.43;69.04;101408.50;15666347;28;20493;-54
2023/10/10 14:06:54;;;;;;;0.00;0.00;;;;;;;16.77;71.69;101395.13;15666047;28;20049;-53
2023/10/10 14:14:29;;;;;;;0.10;0.10;;;;;;;17.21;70.52;101401.00;15665160;28;20513;-52
2023/10/10 14:22:10;;;;;;;0.22;0.22;;;;;;;17.57;69.12;101390.88;15663184;28;20132;-55
2023/10/10 14:29:44;;;;;;;0.10;0.10;;;;;;;17.44;70.14;101385.72;15667619;28;20110;-51
2023/10/10 14:37:19;;;;;;;0.00;0.00;;;;;;;17.35;70.54;101385.28;15653419;28;20049;-51
2023/10/10 14:44:54;;;;;;;0.70;0.35;;;;;;;17.46;70.72;101376.28;15661643;28;20049;-52
2023/10/10 14:52:35;;;;;;;0.73;0.63;;;;;;;17.36;70.09;101378.78;15668562;28;20417;-53
2023/10/10 15:00:17;;;;;;;0.00;0.00;;;;;;;17.98;68.71;101365.38;15664413;28;20128;-55
2023/10/10 15:07:52;;;;;;;0.00;0.00;;;;;;;17.79;69.14;101369.34;15666356;28;20045;-50
2023/10/10 15:15:29;;;;;;;0.10;0.10;;;;;;;18.20;67.99;101360.03;15666593;28;20148;-54
2023/10/10 15:23:04;;;;;;;17.73;1.13;;;;;;;18.20;66.80;101341.03;15670414;28;20051;-52
2023/10/10 15:30:41;;;;;;;0.00;0.00;;;;;;;17.88;67.21;101332.59;15667324;28;20051;-53
2023/10/10 15:38:14;;;;;;;0.03;0.03;;;;;;;17.51;68.62;101319.38;15667408;28;20055;-51
2023/10/10 15:45:49;;;;;;;0.93;0.38;;;;;;;17.48;69.07;101311.72;15648049;28;20049;-55
2023/10/10 15:53:25;;;;;;;0.00;0.00;;;;;;;17.31;69.89;101310.84;15666197;28;20041;-55
2023/10/10 16:00:59;;;;;;;0.00;0.00;;;;;;;17.31;69.69;101311.69;15665314;28;20408;-54
2023/10/10 16:08:32;;;;;;;0.10;0.10;;;;;;;17.46;69.29;101310.31;15665469;28;20515;-56
2023/10/10 16:16:08;;;;;;;0.00;0.00;;;;;;;17.32;69.74;101307.06;15647807;28;20057;-54
2023/10/10 16:23:43;;;;;;;0.00;0.00;;;;;;;17.00;70.99;101307.50;15630756;28;20056;-57
2023/10/10 16:31:20;;;;;;;0.00;0.00;;;;;;;16.92;71.60;101302.44;15639195;28;20068;-53
2023/10/10 16:38:54;;;;;;;0.00;0.00;;;;;;;16.91;71.92;101297.25;15666722;28;20060;-52
2023/10/10 16:46:30;;;;;;;0.10;0.05;;;;;;;16.74;72.55;101300.72;15671513;22;20435;-51
2023/10/10 16:54:06;;;;;;;0.10;0.10;;;;;;;16.50;73.20;101309.88;15787179;28;20043;-50
2023/10/10 17:01:41;;;;;;;0.10;0.10;;;;;;;16.97;71.41;101302.56;15753225;28;20075;-51
2023/10/10 17:09:15;;;;;;;0.05;0.05;;;;;;;16.65;72.85;101261.44;15739461;28;20536;-50
2023/10/10 17:16:50;;;;;;;0.45;0.45;;;;;;;16.52;74.66;101259.81;15739212;28;20145;-50
2023/10/10 17:24:23;;;;;;;0.22;0.22;;;;;;;16.18;75.78;101250.63;15738446;28;20072;-49
2023/10/10 17:32:00;;;;;;;0.00;0.00;;;;;;;16.63;74.30;101250.00;15738386;28;20090;-51
2023/10/10 17:39:34;;;;;;;0.17;0.17;;;;;;;16.26;75.37;101231.28;15721458;28;20426;-50
2023/10/10 17:47:09;;;;;;;0.10;0.10;;;;;;;16.46;75.45;101230.09;15737357;28;20045;-50
2023/10/10 17:54:42;;;;;;;0.10;0.10;;;;;;;16.36;75.83;101232.59;15720297;28;20512;-50
2023/10/10 18:02:22;;;;;;;0.10;0.10;;;;;;;16.15;76.78;101215.88;15734964;28;20068;-49
2023/10/10 18:09:56;;;;;;;0.38;0.38;;;;;;;16.33;75.90;101199.50;15735174;28;20124;-49
2023/10/10 18:17:34;;;;;;;0.20;0.20;;;;;;;16.11;77.13;101193.03;15748955;28;20048;-50
2023/10/10 18:25:09;;;;;;;0.10;0.10;;;;;;;16.51;75.96;101203.97;15727224;28;20213;-51
2023/10/10 18:32:43;;;;;;;0.95;0.65;;;;;;;16.42;75.88;101202.69;15748856;28;20051;-52
2023/10/10 18:40:20;;;;;;;0.08;0.08;;;;;;;16.99;73.95;101204.69;15748550;28;20040;-51
2023/10/10 18:47:56;;;;;;;0.00;0.00;;;;;;;16.69;74.82;101194.84;15725930;28;20037;-50
2023/10/10 18:55:31;;;;;;;0.30;0.30;;;;;;;16.71;74.75;101184.59;15747794;28;20068;-49
2023/10/10 19:03:08;;;;;;;0.00;0.00;;;;;;;16.95;73.94;101182.66;15745328;28;20101;-50
2023/10/10 19:10:41;;;;;;;0.45;0.45;;;;;;;16.92;73.55;101174.16;15746884;28;20408;-51
2023/10/10 19:18:16;;;;;;;;;;;;;;;16.71;74.28;101157.47;15729083;28;20123;-52
2023/10/10 19:25:50;;;;;;;0.00;0.00;;;;;;;16.46;75.47;101157.78;15742864;28;20033;-53
2023/10/10 19:33:25;;;;;;;1.13;0.47;;;;;;;16.70;75.08;101141.47;15726700;28;20044;-51
2023/10/10 19:41:03;;;;;;;0.35;0.35;;;;;;;16.45;76.27;101144.47;15744655;28;20045;-52
2023/10/10 19:48:40;;;;;;;0.20;0.20;;;;;;;16.72;74.96;101142.06;15726775;28;20128;-52
2023/10/10 19:56:13;;;;;;;0.25;0.25;;;;;;;16.85;74.85;101146.41;15744135;28;20060;-51
2023/10/10 20:03:48;;;;;;;0.10;0.10;;;;;;;16.98;73.73;101136.06;15728384;28;20054;-53
2023/10/10 20:11:21;;;;;;;3.03;0.93;;;;;;;16.79;74.95;101137.34;15742668;28;20037;-52
2023/10/10 20:18:56;;;;;;;14.25;2.13;;;;;;;16.76;75.13;101119.66;15734227;28;20119;-51
2023/10/10 20:26:29;;;;;;;0.00;0.00;;;;;;;16.93;74.59;101116.19;15732623;28;20076;-49
2023/10/10 20:34:04;;;;;;;0.40;0.40;;;;;;;16.99;74.13;101128.75;15731629;28;20516;-50
2023/10/10 20:41:37;;;;;;;3.50;0.73;;;;;;;16.91;74.53;101112.88;15732078;28;20051;-51
2023/10/10 20:49:12;;;;;;;0.10;0.10;;;;;;;16.94;74.10;101112.41;15713530;28;20485;-52
2023/10/10 20:56:48;;;;;;;2.05;0.50;;;;;;;16.91;74.42;101110.97;15729424;28;20427;-52
2023/10/10 21:04:23;;;;;;;0.40;0.40;;;;;;;16.85;74.45;101113.84;15730293;28;20223;-49
2023/10/10 21:11:56;;;;;;;0.70;0.55;;;;;;;16.74;74.53;101100.13;15732657;28;20040;-51
2023/10/10 21:19:31;;;;;;;;;;;;;;;16.65;74.41;101071.72;15741708;28;20041;-48
2023/10/10 21:27:05;;;;;;;0.55;0.55;;;;;;;16.63;74.45;101075.72;15739487;28;19942;-51
2023/10/10 21:34:42;;;;;;;0.63;0.63;;;;;;;16.58;74.20;101068.31;15716595;28;20036;-51
2023/10/10 21:42:16;;;;;;;0.10;0.10;;;;;;;16.55;73.92;101068.78;15736594;28;20043;-51
2023/10/10 21:49:51;;;;;;;;;;;;;;;16.31;73.23;101027.41;15737524;28;20101;-49
2023/10/10 21:57:25;;;;;;;0.60;0.60;;;;;;;16.22;73.51;101050.53;15734628;28;20051;-49
2023/10/10 22:05:00;;;;;;;;;;;;;;;16.22;75.79;101032.38;15736010;28;20558;-48
2023/10/10 22:12:54;;;;;;;0.75;0.70;;;;;;;16.22;74.44;101037.81;15716707;28;20018;-50
2023/10/10 22:20:43;;;;;;;0.38;0.38;;;;;;;16.13;74.48;101033.00;15739906;28;20123;-49
2023/10/10 22:28:17;;;;;;;0.22;0.22;;;;;;;16.15;75.02;101022.78;15741013;28;20345;-51
2023/10/10 22:35:53;;;;;;;1.23;0.73;;;;;;;16.30;75.48;101023.06;15734280;28;20068;-49
2023/10/10 22:43:26;;;;;;;1.58;0.68;;;;;;;16.32;74.99;101007.41;15735294;28;20040;-51
2023/10/10 22:51:01;;;;;;;;;;;;;;;16.35;74.96;101019.63;15713755;28;20032;-50
2023/10/10 22:58:34;;;;;;;0.65;0.65;;;;;;;16.31;75.22;101022.00;15719511;28;19931;-49
2023/10/10 23:06:11;;;;;;;0.93;0.38;;;;;;;16.15;76.58;101022.78;15740428;28;20044;-49
2023/10/10 23:13:45;;;;;;;0.25;0.25;;;;;;;16.08;77.60;101012.06;15744784;28;20071;-52
2023/10/10 23:21:20;;;;;;;0.28;0.28;;;;;;;16.29;75.97;101008.72;15743222;28;20166;-50
2023/10/10 23:28:55;;;;;;;0.08;0.08;;;;;;;16.34;76.05;101002.56;15743342;28;20052;-48
2023/10/10 23:36:35;;;;;;;1.55;1.40;;;;;;;16.39;75.76;100997.25;15742739;28;20056;-49
2023/10/10 23:44:10;;;;;;;0.80;0.77;;;;;;;16.24;76.34;100999.66;15742627;28;20050;-48
2023/10/10 23:51:44;;;;;;;0.63;0.32;;;;;;;16.36;75.73;100999.59;15742726;28;20136;-48
2023/10/10 23:59:20;;;;;;;3.70;0.70;;;;;;;16.42;75.25;100995.94;15744366;28;20040;-49
